Time;durP1;ratioP1;P1;durP2;ratioP2;P2;SDS_P1;SDS_P2;PMS_P1;PMS_P2;Temp;Humidity;BMP_temperature;BMP_pressure;BME280_temperature;BME280_humidity;BME280_pressure;Samples;Min_cycle;Max_cycle;Signal;HPM_P1;HPM_P2
2021/11/01 00:02:24;;;;;;;13.32;3.08;;;;;;;15.42;62.54;99627.78;5055846;28;20053;-68
2021/11/01 00:04:52;;;;;;;19.27;2.65;;;;;;;15.42;62.11;99635.28;5056156;28;20049;-67
2021/11/01 00:07:19;;;;;;;16.08;2.88;;;;;;;15.30;62.38;99630.72;5057272;28;20068;-68
2021/11/01 00:09:47;;;;;;;16.95;2.90;;;;;;;15.30;62.80;99622.38;5056958;28;20057;-68
2021/11/01 00:12:14;;;;;;;12.70;2.63;;;;;;;15.26;62.56;99615.97;5055963;28;20386;-68
2021/11/01 00:14:42;;;;;;;18.63;3.25;;;;;;;15.33;62.64;99621.63;5055853;28;20045;-68
2021/11/01 00:17:09;;;;;;;18.63;3.33;;;;;;;15.24;62.87;99621.09;5056693;28;20056;-67
2021/11/01 00:19:37;;;;;;;26.63;3.40;;;;;;;15.17;62.24;99617.38;5057118;28;20045;-69
2021/11/01 00:22:04;;;;;;;19.23;3.00;;;;;;;15.19;62.92;99621.41;5057105;28;20053;-68
2021/11/01 00:24:31;;;;;;;18.70;3.03;;;;;;;15.02;63.51;99616.34;5056858;28;20064;-67
2021/11/01 00:26:59;;;;;;;15.55;3.08;;;;;;;15.16;62.98;99611.06;5038300;28;20068;-67
2021/11/01 00:29:26;;;;;;;17.95;3.03;;;;;;;15.28;62.71;99610.84;5055525;28;20060;-66
2021/11/01 00:31:53;;;;;;;16.40;2.28;;;;;;;15.24;62.99;99612.75;5056419;28;20052;-68
2021/11/01 00:34:20;;;;;;;15.23;2.60;;;;;;;14.99;63.78;99606.00;5050415;28;20046;-67
2021/11/01 00:36:48;;;;;;;15.60;2.90;;;;;;;14.82;63.93;99598.16;5056105;28;20053;-68
2021/11/01 00:39:15;;;;;;;18.40;2.92;;;;;;;15.01;64.03;99600.88;5063351;28;20044;-68
2021/11/01 00:41:42;;;;;;;14.80;3.22;;;;;;;14.97;63.14;99602.00;5076663;28;20052;-67
2021/11/01 00:44:10;;;;;;;17.95;2.78;;;;;;;15.05;63.85;99598.16;5076591;28;20051;-68
2021/11/01 00:46:37;;;;;;;19.33;2.92;;;;;;;15.16;63.66;99586.09;5076048;28;20434;-67
2021/11/01 00:49:05;;;;;;;19.00;3.72;;;;;;;15.19;63.42;99582.56;5076314;28;20049;-67
2021/11/01 00:51:40;;;;;;;16.30;2.90;;;;;;;15.19;62.65;99581.75;5074318;28;20040;-69
2021/11/01 00:54:10;;;;;;;24.92;3.45;;;;;;;15.13;63.26;99572.16;5073223;28;20059;-68
2021/11/01 00:56:38;;;;;;;16.52;2.65;;;;;;;15.16;63.22;99583.31;5074543;28;20411;-67
2021/11/01 00:59:05;;;;;;;16.90;3.25;;;;;;;15.03;63.85;99579.13;5074090;28;20582;-67
2021/11/01 01:01:33;;;;;;;20.35;2.95;;;;;;;15.19;63.21;99565.09;5074204;28;20044;-68
2021/11/01 01:04:01;;;;;;;17.48;2.75;;;;;;;15.26;62.77;99562.44;5074445;28;20052;-67
2021/11/01 01:06:30;;;;;;;20.45;2.83;;;;;;;15.31;62.89;99564.91;5074933;28;20060;-67
2021/11/01 01:08:57;;;;;;;16.70;2.92;;;;;;;15.21;63.09;99568.31;5075578;28;20176;-66
2021/11/01 01:11:25;;;;;;;16.45;2.72;;;;;;;15.15;63.06;99555.94;5074795;28;20056;-67
2021/11/01 01:13:53;;;;;;;16.00;2.53;;;;;;;15.25;63.02;99563.63;5074771;28;20049;-67
2021/11/01 01:16:27;;;;;;;15.50;2.80;;;;;;;15.06;63.21;99575.63;5076107;28;20068;-67
2021/11/01 01:18:59;;;;;;;14.75;2.97;;;;;;;15.20;62.89;99559.19;5074166;28;20522;-68
2021/11/01 01:24:13;;;;;;;16.63;2.70;;;;;;;15.21;62.86;99554.44;5074469;28;20376;-67
2021/11/01 01:26:41;;;;;;;20.55;3.47;;;;;;;15.13;63.15;99545.19;5074052;28;20064;-68
2021/11/01 01:29:11;;;;;;;21.80;3.35;;;;;;;15.24;63.29;99537.06;5075809;28;20115;-68
2021/11/01 01:31:41;;;;;;;20.58;3.72;;;;;;;15.01;63.28;99541.84;5075898;28;20048;-67
2021/11/01 01:34:09;;;;;;;21.77;3.38;;;;;;;15.11;62.80;99547.56;5074225;28;20056;-67
2021/11/01 01:36:36;;;;;;;21.38;2.70;;;;;;;15.13;63.25;99545.19;5075640;28;20498;-69
2021/11/01 01:39:04;;;;;;;20.42;2.40;;;;;;;14.85;63.96;99549.50;5069555;28;20056;-67
2021/11/01 01:41:31;;;;;;;15.13;2.47;;;;;;;14.92;63.97;99544.88;5055601;28;20045;-67
2021/11/01 01:44:00;;;;;;;18.75;2.60;;;;;;;14.91;63.36;99528.59;5054921;28;20037;-67
2021/11/01 01:46:30;;;;;;;14.98;3.08;;;;;;;15.20;62.62;99541.75;5055179;28;20057;-67
2021/11/01 01:48:57;;;;;;;17.70;2.88;;;;;;;15.16;63.24;99538.13;5055085;28;20057;-66
2021/11/01 01:51:27;;;;;;;11.60;2.22;;;;;;;15.14;63.09;99532.16;5055431;28;20523;-67
2021/11/01 01:53:56;;;;;;;13.18;2.30;;;;;;;15.24;62.41;99534.28;5055688;28;20072;-67
2021/11/01 01:56:25;;;;;;;12.25;2.30;;;;;;;15.35;62.34;99526.94;5053980;28;20051;-67
2021/11/01 01:59:02;;;;;;;17.42;2.80;;;;;;;15.34;61.90;99537.22;5055051;28;20048;-68
2021/11/01 02:01:36;;;;;;;13.50;2.22;;;;;;;15.18;62.38;99536.59;5056434;28;20540;-68
2021/11/01 02:04:04;;;;;;;11.57;2.38;;;;;;;15.24;62.41;99537.06;5055174;28;20057;-67
2021/11/01 02:06:59;;;;;;;15.55;2.92;;;;;;;15.33;62.27;99538.41;5053845;28;20056;-68
2021/11/01 02:09:57;;;;;;;17.65;2.70;;;;;;;15.22;62.43;99531.09;5054476;28;20064;-68
2021/11/01 02:12:43;;;;;;;15.68;2.58;;;;;;;15.11;62.58;99536.47;5053710;28;20543;-67
2021/11/01 02:15:14;;;;;;;13.63;2.67;;;;;;;15.05;62.70;99520.50;5055126;28;20057;-67
2021/11/01 02:17:42;;;;;;;11.80;2.33;;;;;;;14.99;62.82;99522.00;5054950;28;20048;-66
2021/11/01 02:20:13;;;;;;;14.63;2.58;;;;;;;14.94;62.52;99516.78;5054665;28;20045;-68
2021/11/01 02:22:52;;;;;;;;;;;;;;;15.08;62.14;99522.56;5054172;28;20773;-68
2021/11/01 02:25:42;;;;;;;16.40;2.80;;;;;;;15.06;62.05;99528.47;5054821;28;19921;-67
2021/11/01 02:28:12;;;;;;;12.07;2.28;;;;;;;15.07;62.47;99535.63;5037220;28;20056;-68
2021/11/01 02:30:39;;;;;;;15.63;3.20;;;;;;;14.65;63.16;99538.47;5053445;28;20060;-67
2021/11/01 02:33:07;;;;;;;18.40;2.75;;;;;;;14.98;62.49;99532.28;5053780;28;20053;-67
2021/11/01 02:35:36;;;;;;;13.23;2.20;;;;;;;15.10;62.33;99526.53;5052879;28;20064;-67
2021/11/01 02:38:05;;;;;;;15.25;2.35;;;;;;;15.02;62.48;99533.16;5051592;28;20064;-66
2021/11/01 02:40:33;;;;;;;17.98;2.90;;;;;;;15.20;62.24;99531.44;5054814;28;20048;-66
2021/11/01 02:43:01;;;;;;;12.00;2.22;;;;;;;14.91;62.78;99543.25;5073515;28;20068;-67
2021/11/01 02:45:28;;;;;;;15.65;2.80;;;;;;;14.75;62.59;99539.81;5074692;28;20408;-68
2021/11/01 02:47:55;;;;;;;18.85;2.50;;;;;;;14.78;62.89;99528.00;5074536;28;20443;-68
2021/11/01 02:50:23;;;;;;;14.43;2.80;;;;;;;14.97;62.69;99529.88;5073492;28;20051;-66
2021/11/01 02:52:50;;;;;;;16.52;2.42;;;;;;;14.99;62.42;99539.44;5073620;28;20052;-67
2021/11/01 02:55:19;;;;;;;14.52;1.83;;;;;;;15.16;61.56;99543.66;5074791;28;20049;-69
2021/11/01 02:57:48;;;;;;;14.20;2.47;;;;;;;15.03;62.19;99537.53;5078557;28;20049;-67
2021/11/01 03:00:17;;;;;;;13.70;2.15;;;;;;;14.85;62.67;99541.97;5078405;28;20045;-67
2021/11/01 03:02:45;;;;;;;14.20;2.80;;;;;;;15.09;61.90;99538.00;5078493;28;20047;-67
2021/11/01 03:05:16;;;;;;;12.27;2.20;;;;;;;14.98;62.36;99542.56;5078469;28;20052;-67
2021/11/01 03:07:44;;;;;;;14.32;2.42;;;;;;;15.03;62.14;99536.75;5076659;28;20124;-67
2021/11/01 03:10:12;;;;;;;15.77;2.50;;;;;;;14.93;62.39;99534.56;5076486;28;20061;-68
2021/11/01 03:12:41;;;;;;;9.40;2.08;;;;;;;14.92;62.42;99527.44;5078201;28;20056;-69
2021/11/01 03:15:12;;;;;;;17.60;2.65;;;;;;;14.92;62.46;99521.88;5078464;28;20053;-68
2021/11/01 03:17:43;;;;;;;14.63;2.67;;;;;;;14.93;62.19;99521.50;5076962;28;20064;-68
2021/11/01 03:20:16;;;;;;;14.40;2.60;;;;;;;14.94;62.52;99530.63;5076717;28;20139;-67
2021/11/01 03:22:50;;;;;;;10.13;2.28;;;;;;;14.78;62.81;99532.75;5077074;28;20064;-68
2021/11/01 03:25:24;;;;;;;12.40;2.17;;;;;;;14.75;62.39;99525.94;5078246;28;20054;-68
2021/11/01 03:28:01;;;;;;;13.27;2.17;;;;;;;14.54;63.45;99533.88;5078156;28;20056;-68
2021/11/01 03:30:30;;;;;;;13.77;2.28;;;;;;;14.41;63.16;99544.34;5076309;28;20049;-70
2021/11/01 03:32:57;;;;;;;9.10;1.98;;;;;;;14.72;63.50;99540.56;5077014;28;20049;-67
2021/11/01 03:35:26;;;;;;;13.93;2.15;;;;;;;14.85;62.74;99550.31;5078612;28;20056;-68
2021/11/01 03:37:56;;;;;;;15.68;2.90;;;;;;;14.82;62.78;99559.34;5076532;28;20412;-66
2021/11/01 03:40:28;;;;;;;10.18;1.80;;;;;;;15.12;62.75;99565.81;5061227;28;20408;-67
2021/11/01 03:42:56;;;;;;;12.80;2.47;;;;;;;14.74;62.76;99565.94;5040415;28;20623;-70
2021/11/01 03:45:25;;;;;;;13.60;2.53;;;;;;;14.87;62.31;99581.22;5040078;28;20053;-66
2021/11/01 03:47:55;;;;;;;12.20;2.60;;;;;;;14.73;63.05;99571.84;5056367;28;20048;-67
2021/11/01 03:52:53;;;;;;;10.60;1.60;;;;;;;14.68;63.49;99562.66;5039861;28;20404;-67
2021/11/01 03:55:23;;;;;;;14.82;2.10;;;;;;;14.68;63.35;99566.63;5057617;28;20049;-67
2021/11/01 03:57:50;;;;;;;;;;;;;;;14.67;62.75;99574.13;5056651;28;20052;-68
2021/11/01 04:00:20;;;;;;;12.15;1.95;;;;;;;14.54;63.12;99573.50;5072322;28;19920;-67
2021/11/01 04:02:47;;;;;;;12.27;1.90;;;;;;;14.75;62.92;99561.19;5056233;28;20144;-67
2021/11/01 04:05:15;;;;;;;15.98;2.10;;;;;;;14.69;62.25;99563.47;5038956;28;20561;-67
2021/11/01 04:07:44;;;;;;;14.07;2.25;;;;;;;14.36;63.80;99569.59;5056373;28;20052;-67
2021/11/01 04:10:12;;;;;;;16.75;2.67;;;;;;;14.52;63.73;99567.50;5056678;28;20056;-67
2021/11/01 04:12:41;;;;;;;8.52;1.63;;;;;;;14.57;63.33;99561.66;5055991;28;20056;-68
2021/11/01 04:15:12;;;;;;;11.20;2.03;;;;;;;14.70;62.90;99570.59;5055777;28;20053;-67
2021/11/01 04:17:46;;;;;;;11.30;2.42;;;;;;;14.93;61.97;99576.97;5057061;28;20053;-68
2021/11/01 04:22:48;;;;;;;11.50;1.95;;;;;;;15.01;61.61;99564.03;5055801;28;20492;-67
2021/11/01 04:25:16;;;;;;;11.85;1.90;;;;;;;14.87;61.52;99572.88;5055771;28;20412;-67
2021/11/01 04:27:45;;;;;;;8.52;1.40;;;;;;;14.71;61.67;99580.53;5055845;28;20060;-68
2021/11/01 04:30:14;;;;;;;11.87;1.90;;;;;;;14.64;62.04;99574.88;5055204;28;20041;-68
2021/11/01 04:32:43;;;;;;;10.95;1.77;;;;;;;14.67;62.77;99571.34;5056838;28;20491;-67
2021/11/01 04:35:17;;;;;;;9.23;1.52;;;;;;;14.77;61.80;99567.97;5057101;28;20524;-68
2021/11/01 04:37:46;;;;;;;10.88;2.03;;;;;;;14.84;61.87;99567.28;5034872;28;20053;-68
2021/11/01 04:53:43;;;;;;;8.18;1.73;;;;;;;15.02;61.27;99568.41;5075096;28;20063;-66
2021/11/01 04:56:11;;;;;;;9.75;1.55;;;;;;;15.01;60.92;99562.03;5076591;28;20056;-67
2021/11/01 04:58:44;;;;;;;15.40;2.00;;;;;;;15.01;60.90;99573.13;5074759;28;20060;-67
2021/11/01 05:01:12;;;;;;;12.32;2.20;;;;;;;14.87;61.08;99575.66;5074971;28;20055;-68
2021/11/01 05:03:42;;;;;;;8.55;1.67;;;;;;;14.90;61.64;99571.38;5076262;28;20049;-68
2021/11/01 05:06:10;;;;;;;10.77;1.55;;;;;;;15.02;61.58;99566.44;5074816;28;20052;-67
2021/11/01 05:08:47;;;;;;;11.10;1.50;;;;;;;14.87;61.35;99567.34;5075762;28;20053;-68
2021/11/01 05:11:24;;;;;;;10.88;1.85;;;;;;;14.95;61.23;99566.31;5076295;28;20040;-67
2021/11/01 05:13:52;;;;;;;8.52;1.60;;;;;;;14.99;61.40;99566.38;5076209;28;20528;-68
2021/11/01 05:21:48;;;;;;;8.77;1.73;;;;;;;14.74;62.56;99559.59;5075687;28;20400;-67
2021/11/01 05:24:24;;;;;;;14.20;2.08;;;;;;;14.93;62.12;99559.53;5075680;28;20440;-67
2021/11/01 05:27:09;;;;;;;9.82;1.63;;;;;;;15.12;61.35;99557.47;5076006;28;20446;-68
2021/11/01 05:29:38;;;;;;;8.80;1.65;;;;;;;15.18;61.28;99560.75;5075705;28;20049;-68
2021/11/01 05:32:12;;;;;;;13.10;2.15;;;;;;;15.21;60.98;99549.72;5074432;28;20059;-68
2021/11/01 05:34:40;;;;;;;9.73;1.58;;;;;;;15.03;61.47;99556.94;5074823;28;20068;-68
2021/11/01 05:37:07;;;;;;;9.27;1.73;;;;;;;15.22;61.43;99561.63;5076232;28;20048;-68
2021/11/01 05:39:37;;;;;;;10.02;1.60;;;;;;;15.25;60.92;99558.91;5065772;28;20484;-70
2021/11/01 05:42:06;;;;;;;7.17;1.43;;;;;;;14.72;61.90;99565.50;5056047;28;20508;-68
2021/11/01 05:44:33;;;;;;;7.97;1.70;;;;;;;14.80;62.11;99564.47;5054944;28;20049;-67
2021/11/01 05:47:02;;;;;;;10.75;1.70;;;;;;;15.04;61.46;99560.50;5055785;28;20048;-67
2021/11/01 05:49:29;;;;;;;6.45;1.60;;;;;;;15.11;61.36;99572.53;5055535;28;20045;-68
2021/11/01 05:51:57;;;;;;;7.97;1.30;;;;;;;15.14;61.20;99570.97;5055856;28;20059;-69
2021/11/01 05:54:30;;;;;;;9.13;1.38;;;;;;;15.27;60.41;99578.72;5055172;28;20465;-70
2021/11/01 05:59:58;;;;;;;9.70;1.80;;;;;;;15.37;60.02;99578.13;5055372;28;20520;-67
2021/11/01 06:02:41;;;;;;;6.82;1.20;;;;;;;14.97;61.24;99593.66;5055045;28;20053;-66
2021/11/01 06:05:27;;;;;;;15.68;2.13;;;;;;;15.29;60.59;99593.03;5055549;28;20053;-67
2021/11/01 06:08:41;;;;;;;9.70;1.40;;;;;;;15.31;60.14;99600.97;5055396;28;20057;-67
2021/11/01 06:13:30;;;;;;;11.73;1.95;;;;;;;14.93;61.01;99617.75;5053918;28;20064;-68
2021/11/01 06:15:59;;;;;;;7.40;1.20;;;;;;;14.79;62.00;99618.31;5055204;28;20049;-68
2021/11/01 06:21:05;;;;;;;7.75;1.92;;;;;;;14.93;61.05;99618.56;5036233;28;20045;-68
2021/11/01 06:23:34;;;;;;;12.70;1.90;;;;;;;14.87;60.94;99620.03;5054938;28;20057;-66
2021/11/01 06:26:02;;;;;;;12.40;1.70;;;;;;;14.84;61.76;99611.63;5054752;28;20499;-67
2021/11/01 06:28:31;;;;;;;6.93;1.70;;;;;;;15.07;61.00;99618.00;5053608;28;20057;-67
2021/11/01 06:31:07;;;;;;;12.07;1.50;;;;;;;14.88;61.58;99613.31;5057745;28;20049;-68
2021/11/01 06:33:49;;;;;;;8.57;1.40;;;;;;;15.03;61.24;99629.03;5061447;28;20052;-67
2021/11/01 06:42:09;;;;;;;14.75;1.52;;;;;;;14.97;61.29;99627.75;5080164;28;20059;-66
2021/11/01 06:55:55;;;;;;;13.52;2.30;;;;;;;15.10;61.48;99642.25;5060081;28;20049;-67
2021/11/01 06:58:34;;;;;;;8.10;1.48;;;;;;;15.10;60.82;99639.47;5061523;28;20057;-67
2021/11/01 07:20:11;;;;;;;10.70;2.70;;;;;;;14.97;61.80;99647.16;5041155;28;20053;-67
2021/11/01 08:26:26;;;;;;;12.63;3.13;;;;;;;14.29;62.68;99677.50;5051319;28;20053;-67
2021/11/01 08:28:41;;;;;;;8.07;1.63;;;;;;;14.24;62.94;99677.72;5055662;28;20120;-67
2021/11/01 08:44:51;;;;;;;9.45;1.55;;;;;;;14.93;61.21;99681.53;5050176;28;20075;-63
2021/11/01 09:26:21;;;;;;;11.43;1.52;;;;;;;15.03;61.45;99672.63;5054361;28;20116;-65
2021/11/01 09:29:00;;;;;;;10.02;2.00;;;;;;;14.33;62.90;99672.81;5069274;28;20068;-66
2021/11/01 09:42:48;;;;;;;9.13;2.00;;;;;;;15.71;59.21;99671.44;5055203;28;20564;-66
2021/11/01 09:45:16;;;;;;;8.18;1.85;;;;;;;15.57;58.66;99673.19;5053707;28;20558;-67
2021/11/01 09:47:46;;;;;;;10.13;2.28;;;;;;;15.60;58.42;99676.03;5055490;28;20048;-65
2021/11/01 09:50:17;;;;;;;12.57;2.10;;;;;;;15.43;59.70;99667.44;5054143;28;20492;-66
2021/11/01 09:52:46;;;;;;;8.40;2.05;;;;;;;15.66;59.79;99663.44;5048109;28;20794;-67
2021/11/01 10:01:10;;;;;;;11.80;1.90;;;;;;;15.44;60.66;99664.28;5048279;28;20056;-69
2021/11/01 10:03:39;;;;;;;12.75;1.90;;;;;;;15.58;60.04;99663.72;5055354;28;20366;-66
2021/11/01 10:06:08;;;;;;;11.73;2.15;;;;;;;15.83;58.81;99653.78;5054796;28;20060;-68
2021/11/01 10:08:36;;;;;;;17.20;1.57;;;;;;;15.73;58.88;99651.63;5052286;28;20048;-67
2021/11/01 10:11:14;;;;;;;6.72;1.58;;;;;;;15.93;58.75;99657.91;5061163;28;20046;-69
2021/11/01 10:13:42;;;;;;;8.00;1.30;;;;;;;15.88;58.15;99667.38;5053785;28;20072;-66
2021/11/01 10:18:55;;;;;;;11.57;2.00;;;;;;;15.75;58.79;99672.31;5055285;28;20068;-67
2021/11/01 10:21:29;;;;;;;10.75;1.75;;;;;;;16.01;58.37;99665.13;5036381;28;20063;-69
2021/11/01 10:23:58;;;;;;;14.60;2.53;;;;;;;16.27;57.14;99674.25;5045491;28;20041;-68
2021/11/01 10:26:30;;;;;;;10.10;2.00;;;;;;;16.39;57.00;99670.44;5035135;28;20054;-65
2021/11/01 10:29:07;;;;;;;14.77;2.35;;;;;;;16.51;56.54;99670.25;5033046;28;20049;-68
2021/11/01 10:31:43;;;;;;;12.25;1.92;;;;;;;16.55;55.87;99671.88;5047449;28;20072;-69
2021/11/01 10:34:12;;;;;;;11.23;2.22;;;;;;;16.59;56.09;99663.59;5054477;28;20048;-68
2021/11/01 10:36:43;;;;;;;6.65;1.30;;;;;;;16.38;56.22;99668.84;5053293;28;20412;-67
2021/11/01 10:39:17;;;;;;;10.75;1.63;;;;;;;16.58;55.90;99667.56;5058762;28;20041;-68
2021/11/01 11:15:05;;;;;;;11.75;4.25;;;;;;;17.04;52.93;99621.56;5069973;28;20461;-67
2021/11/01 11:17:49;;;;;;;9.77;3.40;;;;;;;16.96;52.04;99624.66;5039208;28;20049;-68
2021/11/01 11:47:13;;;;;;;26.83;2.47;;;;;;;17.26;50.92;99631.69;5057561;28;20056;-68
2021/11/01 11:49:40;;;;;;;9.55;3.40;;;;;;;17.23;49.77;99626.91;5037852;28;20053;-68
2021/11/01 11:52:14;;;;;;;10.00;1.73;;;;;;;16.58;50.88;99632.19;5056630;28;20049;-68
2021/11/01 11:54:53;;;;;;;7.90;1.45;;;;;;;16.92;51.06;99624.63;5056948;28;20044;-68
2021/11/01 11:57:23;;;;;;;7.13;1.35;;;;;;;16.69;51.12;99619.22;5056333;28;20053;-68
2021/11/01 11:59:54;;;;;;;10.68;1.90;;;;;;;17.17;50.91;99622.09;5055500;28;20858;-67
2021/11/01 12:02:45;;;;;;;7.13;1.75;;;;;;;17.23;50.73;99615.78;5055842;28;20411;-68
2021/11/01 12:05:35;;;;;;;12.27;1.67;;;;;;;17.44;49.65;99618.75;5043886;28;20045;-68
2021/11/01 12:08:42;;;;;;;6.00;1.42;;;;;;;17.69;49.22;99596.69;5039542;28;20046;-69
2021/11/01 12:19:12;;;;;;;14.27;2.40;;;;;;;17.13;50.30;99597.00;5072312;28;20126;-68
2021/11/01 12:21:41;;;;;;;7.13;1.73;;;;;;;17.41;49.86;99596.44;5056803;28;20060;-69
2021/11/01 12:24:18;;;;;;;8.82;2.05;;;;;;;17.52;48.82;99602.94;5054417;28;20049;-68
2021/11/01 12:26:46;;;;;;;9.13;1.90;;;;;;;17.76;48.58;99591.16;5055255;28;20084;-68
2021/11/01 12:29:14;;;;;;;10.60;2.03;;;;;;;17.71;49.31;99588.75;5053268;28;20049;-68
2021/11/01 12:31:42;;;;;;;10.90;2.13;;;;;;;17.47;47.44;99595.72;5038896;28;20385;-68
2021/11/01 12:34:21;;;;;;;10.98;2.40;;;;;;;17.35;49.68;99584.06;5055342;28;20051;-67
2021/11/01 12:37:14;;;;;;;8.80;1.80;;;;;;;17.62;49.59;99583.50;5054690;28;20049;-70
2021/11/01 12:40:03;;;;;;;14.15;2.53;;;;;;;17.86;48.91;99579.28;5059465;28;20052;-67
2021/11/01 12:58:54;;;;;;;9.55;2.00;;;;;;;16.88;53.84;99564.59;5054454;28;20075;-70
2021/11/01 13:01:22;;;;;;;10.43;2.95;;;;;;;17.27;52.48;99566.53;5047714;28;20068;-69
2021/11/01 13:03:53;;;;;;;9.02;2.00;;;;;;;16.65;54.16;99564.72;5049092;28;20045;-69
2021/11/01 13:06:36;;;;;;;10.60;2.60;;;;;;;16.81;54.29;99563.31;5055486;28;20053;-69
2021/11/01 13:09:12;;;;;;;15.95;4.72;;;;;;;16.15;55.98;99568.09;5031830;28;20500;-69
2021/11/01 13:19:33;;;;;;;11.65;1.80;;;;;;;16.43;55.09;99529.53;5050421;28;20037;-68
2021/11/01 13:22:10;;;;;;;9.95;1.80;;;;;;;16.43;57.92;99521.19;5055971;28;20406;-68
2021/11/01 13:24:48;;;;;;;9.02;1.77;;;;;;;16.61;57.57;99519.44;5055141;28;20523;-68
2021/11/01 13:27:37;;;;;;;13.68;2.67;;;;;;;16.99;57.15;99504.25;5057134;28;20524;-69
2021/11/01 13:35:50;;;;;;;24.92;9.25;;;;;;;16.68;54.39;99523.06;5046122;28;20060;-66
2021/11/01 13:38:27;;;;;;;19.98;8.32;;;;;;;17.05;54.97;99506.28;5056130;28;20048;-67
2021/11/01 13:40:55;;;;;;;16.50;7.07;;;;;;;17.19;54.96;99500.84;5041547;28;20120;-66
2021/11/01 13:43:28;;;;;;;14.75;5.88;;;;;;;17.09;54.95;99503.53;5037498;28;20048;-67
2021/11/01 13:46:00;;;;;;;10.85;4.60;;;;;;;17.19;55.36;99503.63;5052214;28;20059;-66
2021/11/01 13:48:31;;;;;;;11.45;3.42;;;;;;;17.15;55.62;99511.16;5054274;28;20053;-67
2021/11/01 13:51:03;;;;;;;;;;;;;;;17.12;54.24;99525.81;5070319;28;20057;-67
2021/11/01 13:53:37;;;;;;;7.93;1.83;;;;;;;16.63;53.11;99540.09;5054843;28;19921;-66
2021/11/01 13:56:18;;;;;;;11.10;1.80;;;;;;;15.44;57.61;99544.16;5055122;28;20754;-67
2021/11/01 14:12:46;;;;;;;9.23;2.10;;;;;;;14.98;65.12;99553.66;5047023;28;20049;-67
2021/11/01 14:31:02;;;;;;;4.90;1.42;;;;;;;16.10;58.64;99533.13;5047846;28;20057;-70
2021/11/01 15:41:36;;;;;;;16.52;10.05;;;;;;;15.45;64.27;99556.84;5076213;28;20051;-64
2021/11/01 16:19:14;;;;;;;3.55;1.55;;;;;;;15.13;64.40;99555.53;5057894;28;20055;-66
2021/11/01 16:21:42;;;;;;;5.15;1.88;;;;;;;15.13;64.29;99559.06;5050953;28;21829;-66
2021/11/01 16:24:11;;;;;;;7.05;2.03;;;;;;;15.20;63.93;99561.97;5055007;28;20491;-70
2021/11/01 16:26:39;;;;;;;5.47;2.10;;;;;;;15.31;62.52;99557.38;5057100;28;20052;-70
2021/11/01 16:29:11;;;;;;;5.10;1.90;;;;;;;15.40;62.91;99566.28;5056610;28;20045;-68
2021/11/01 16:34:17;;;;;;;5.68;1.63;;;;;;;14.99;64.30;99569.16;5037393;28;20042;-68
2021/11/01 16:37:02;;;;;;;7.88;1.92;;;;;;;15.08;63.80;99556.63;5037122;28;20397;-68
2021/11/01 16:39:43;;;;;;;5.93;1.60;;;;;;;15.03;63.99;99564.47;5052845;28;20049;-68
2021/11/01 16:42:16;;;;;;;4.32;1.60;;;;;;;15.09;63.40;99569.31;5045204;28;20603;-68
2021/11/01 16:44:44;;;;;;;5.32;1.95;;;;;;;15.02;64.23;99563.66;5056782;28;20041;-68
2021/11/01 16:47:13;;;;;;;5.40;2.00;;;;;;;15.03;64.43;99579.13;5035357;28;20045;-68
2021/11/01 16:49:42;;;;;;;9.20;2.20;;;;;;;15.20;64.02;99575.84;5040413;28;20064;-69
2021/11/01 16:52:16;;;;;;;13.73;8.90;;;;;;;15.06;64.15;99583.94;5025607;28;20053;-68
2021/11/01 16:54:54;;;;;;;9.00;2.80;;;;;;;14.96;64.73;99572.66;5056095;28;20049;-70
2021/11/01 17:22:34;;;;;;;4.70;1.92;;;;;;;12.57;72.20;99590.22;5053886;28;20057;-63
2021/11/01 17:28:20;;;;;;;5.45;1.92;;;;;;;12.33;73.35;99602.19;5054910;28;20056;-62
2021/11/01 17:31:14;;;;;;;7.57;2.67;;;;;;;12.22;73.87;99603.84;5051227;28;21934;-65
2021/11/01 17:36:46;;;;;;;7.72;2.28;;;;;;;12.22;75.15;99611.34;5055889;28;20049;-62
2021/11/01 18:41:07;;;;;;;8.75;3.55;;;;;;;12.10;75.67;99636.22;5045409;28;20049;-62
2021/11/01 18:46:27;;;;;;;9.35;3.45;;;;;;;12.08;75.50;99639.31;5054479;28;20049;-61
2021/11/01 18:51:53;;;;;;;7.93;2.85;;;;;;;12.38;74.46;99645.31;5054349;28;20059;-62
2021/11/01 18:54:24;;;;;;;7.32;2.80;;;;;;;12.59;73.99;99637.63;5045198;28;20056;-61
2021/11/01 18:56:56;;;;;;;6.78;2.67;;;;;;;12.66;73.48;99634.28;5051815;28;20040;-61
2021/11/01 18:59:25;;;;;;;8.10;2.72;;;;;;;12.51;73.60;99641.34;5052941;28;20048;-60
2021/11/01 19:02:08;;;;;;;8.30;2.80;;;;;;;12.57;73.21;99637.16;5053604;28;20053;-61
2021/11/01 19:05:02;;;;;;;8.38;3.03;;;;;;;12.41;73.33;99634.38;5053350;28;20055;-62
2021/11/01 19:07:56;;;;;;;12.45;5.30;;;;;;;12.41;73.48;99633.59;5052153;28;20044;-61
2021/11/01 20:03:59;;;;;;;10.27;3.90;;;;;;;14.77;65.41;99606.00;5057435;28;20472;-63
2021/11/01 21:25:02;;;;;;;11.18;3.38;;;;;;;15.19;63.93;99596.44;5055419;28;20041;-65
2021/11/01 21:27:30;;;;;;;8.23;3.03;;;;;;;15.11;63.53;99591.16;5059294;28;20049;-65
2021/11/01 21:29:58;;;;;;;11.30;2.70;;;;;;;15.22;64.78;99601.22;5053954;28;20056;-65
2021/11/01 21:32:25;;;;;;;11.02;3.22;;;;;;;15.26;63.61;99584.66;5039477;28;20067;-66
2021/11/01 21:35:42;;;;;;;20.35;13.43;;;;;;;15.33;63.62;99590.31;5050847;28;20493;-66
2021/11/01 21:37:42;;;;;;;6.97;2.97;;;;;;;15.15;64.22;99592.78;5048051;28;20056;-66
2021/11/01 21:40:12;;;;;;;8.77;3.38;;;;;;;15.01;64.49;99589.00;5052943;28;20056;-67
2021/11/01 21:42:42;;;;;;;9.38;3.58;;;;;;;14.85;65.38;99586.34;5050110;28;20057;-67
2021/11/01 21:45:10;;;;;;;18.75;9.38;;;;;;;14.81;65.44;99587.44;5053797;28;20045;-66
2021/11/01 21:47:39;;;;;;;18.00;8.60;;;;;;;14.90;64.34;99583.25;5052970;28;20049;-67
2021/11/01 21:50:06;;;;;;;18.85;8.07;;;;;;;15.05;65.14;99584.28;5035314;28;20497;-67
2021/11/01 21:52:53;;;;;;;11.52;4.65;;;;;;;15.16;64.29;99566.66;5051441;28;20048;-66
2021/11/01 21:55:23;;;;;;;8.50;3.20;;;;;;;14.82;63.87;99564.88;5051316;28;20056;-65
2021/11/01 21:57:58;;;;;;;9.57;2.70;;;;;;;14.60;65.56;99566.50;5051096;28;20048;-64
2021/11/01 22:00:47;;;;;;;6.10;2.75;;;;;;;14.85;65.16;99566.13;5050432;28;20052;-64
2021/11/01 22:17:14;;;;;;;7.43;2.88;;;;;;;14.87;64.14;99552.69;5053749;28;20674;-66
2021/11/01 22:20:05;;;;;;;8.55;2.88;;;;;;;14.84;64.70;99554.22;5038893;28;20052;-67
2021/11/01 22:25:21;;;;;;;7.05;2.28;;;;;;;15.02;64.06;99549.78;5055335;28;20059;-66
2021/11/01 22:33:56;;;;;;;7.57;2.25;;;;;;;14.94;64.37;99544.50;5058170;28;20048;-71
2021/11/01 22:41:56;;;;;;;8.05;2.50;;;;;;;15.16;63.88;99543.66;5054933;28;20052;-67
2021/11/01 22:57:52;;;;;;;8.68;2.30;;;;;;;14.99;70.10;99531.13;5049776;28;20048;-68
2021/11/01 23:00:22;;;;;;;10.88;2.75;;;;;;;14.94;71.01;99530.63;5054522;28;20045;-68
2021/11/01 23:02:59;;;;;;;8.20;2.58;;;;;;;15.11;70.88;99530.13;5053159;28;20056;-67
2021/11/01 23:06:17;;;;;;;9.60;2.42;;;;;;;14.87;70.23;99524.97;5053225;28;20048;-69
2021/11/01 23:33:21;;;;;;;7.00;1.98;;;;;;;14.46;69.64;99518.31;5058241;28;20053;-70
2021/11/01 23:35:50;;;;;;;6.40;2.05;;;;;;;14.59;70.12;99514.22;5073598;28;20052;-70
2021/11/01 23:38:17;;;;;;;8.88;1.80;;;;;;;14.52;69.56;99509.31;5058123;28;20550;-70
2021/11/01 23:40:45;;;;;;;9.60;1.95;;;;;;;14.57;69.10;99509.00;5078462;28;20519;-69
2021/11/01 23:43:13;;;;;;;8.95;2.33;;;;;;;14.44;68.16;99510.38;5078085;28;20495;-69
2021/11/01 23:45:42;;;;;;;4.65;1.80;;;;;;;14.65;68.99;99504.41;5077999;28;20419;-69
2021/11/01 23:48:10;;;;;;;7.43;2.15;;;;;;;14.57;70.27;99502.69;5060260;28;20113;-69
2021/11/01 23:50:39;;;;;;;6.53;1.90;;;;;;;14.62;68.95;99497.66;5056913;28;20052;-70
2021/11/01 23:55:41;;;;;;;5.97;2.00;;;;;;;14.59;68.33;99500.34;5058049;28;20071;-71
2021/11/01 23:58:08;;;;;;;7.13;1.52;;;;;;;14.59;68.26;99494.81;5057286;28;20056;-70
